Time;durP1;ratioP1;P1;durP2;ratioP2;P2;SDS_P1;SDS_P2;PMS_P1;PMS_P2;Temp;Humidity;BMP_temperature;BMP_pressure;BME280_temperature;BME280_humidity;BME280_pressure;Samples;Min_cycle;Max_cycle;Signal;HPM_P1;HPM_P2
2022/10/14 05:58:37;;;;;;;6.00;4.97;;;;;;;;;;10588927;27;20124;-86
2022/10/14 06:03:38;;;;;;;8.18;6.50;;;;;;;;;;10588743;28;20027;-86
2022/10/14 06:08:39;;;;;;;5.13;4.13;;;;;;;;;;10583306;28;20115;-86
2022/10/14 06:13:40;;;;;;;;;;;;;;;;;;10586752;28;20419;-84
2022/10/14 06:18:41;;;;;;;5.45;4.85;;;;;;;;;;10585474;28;19904;-84
2022/10/14 06:23:42;;;;;;;7.32;6.38;;;;;;;;;;10586086;28;20061;-84
2022/10/14 06:28:43;;;;;;;;;;;;;;;;;;10588786;28;20441;-84
2022/10/14 06:33:44;;;;;;;4.53;3.88;;;;;;;;;;10580555;28;19908;-83
2022/10/14 06:38:50;;;;;;;3.40;3.10;;;;;;;;;;10583771;28;20028;-83
2022/10/14 06:43:51;;;;;;;5.75;4.55;;;;;;;;;;10597001;28;20035;-85
2022/10/14 06:48:53;;;;;;;5.32;4.82;;;;;;;;;;10597689;28;20103;-84
2022/10/14 06:53:54;;;;;;;4.05;3.60;;;;;;;;;;10595226;28;20032;-83
2022/10/14 06:58:55;;;;;;;6.60;6.00;;;;;;;;;;10583855;28;20062;-84
2022/10/14 07:03:56;;;;;;;2.92;2.22;;;;;;;;;;10589671;28;20088;-85
2022/10/14 07:08:57;;;;;;;3.28;2.50;;;;;;;;;;10565967;28;20100;-82
2022/10/14 07:13:59;;;;;;;3.67;2.80;;;;;;;;;;10561612;28;20039;-84
2022/10/14 07:19:01;;;;;;;4.90;3.03;;;;;;;;;;10559472;28;20039;-83
2022/10/14 07:24:25;;;;;;;4.35;3.20;;;;;;;;;;10556951;28;20107;-85
2022/10/14 07:35:10;;;;;;;5.43;4.50;;;;;;;;;;10546135;28;20189;-85
2022/10/14 07:40:18;;;;;;;4.43;3.65;;;;;;;;;;10543422;28;20024;-85
2022/10/14 07:51:16;;;;;;;4.10;3.08;;;;;;;;;;10550667;28;20036;-86
2022/10/14 07:56:23;;;;;;;4.88;4.20;;;;;;;;;;10552367;28;20134;-83
2022/10/14 08:01:24;;;;;;;4.97;4.40;;;;;;;;;;10554248;28;20043;-84
2022/10/14 08:06:25;;;;;;;5.25;4.70;;;;;;;;;;10555305;28;20060;-84
2022/10/14 08:11:27;;;;;;;6.03;5.43;;;;;;;;;;10547094;28;20131;-86
2022/10/14 08:16:32;;;;;;;7.38;5.00;;;;;;;;;;10544004;28;20371;-85
2022/10/14 08:21:34;;;;;;;8.95;2.67;;;;;;;;;;10548277;28;20028;-84
2022/10/14 08:26:36;;;;;;;4.47;2.70;;;;;;;;;;10554655;28;20976;-82
2022/10/14 08:31:38;;;;;;;3.85;2.25;;;;;;;;;;10553949;28;20478;-83
2022/10/14 08:36:39;;;;;;;4.38;2.97;;;;;;;;;;10554423;28;20032;-84
2022/10/14 08:42:02;;;;;;;5.63;2.63;;;;;;;;;;10556550;28;20429;-85
2022/10/14 08:47:04;;;;;;;6.15;2.90;;;;;;;;;;10552064;28;20370;-84
2022/10/14 08:52:08;;;;;;;2.80;2.03;;;;;;;;;;10556259;28;20478;-84
2022/10/14 08:57:29;;;;;;;3.53;2.50;;;;;;;;;;10555398;28;20146;-83
2022/10/14 09:02:38;;;;;;;5.68;2.30;;;;;;;;;;10557032;28;20040;-84
2022/10/14 09:07:39;;;;;;;3.65;1.90;;;;;;;;;;10558981;28;20103;-83
2022/10/14 09:12:41;;;;;;;3.92;2.00;;;;;;;;;;10556876;28;20026;-83
2022/10/14 09:17:43;;;;;;;3.58;1.70;;;;;;;;;;10557332;28;20031;-83
2022/10/14 09:22:50;;;;;;;3.78;1.60;;;;;;;;;;10555068;28;20111;-82
2022/10/14 09:27:52;;;;;;;4.72;2.00;;;;;;;;;;10555205;28;20035;-83
2022/10/14 09:32:55;;;;;;;2.65;1.60;;;;;;;;;;10559332;28;20020;-81
2022/10/14 09:37:56;;;;;;;3.25;1.60;;;;;;;;;;10558438;28;20028;-82
2022/10/14 09:43:06;;;;;;;4.13;1.90;;;;;;;;;;10564108;28;20035;-81
2022/10/14 09:48:14;;;;;;;3.22;1.65;;;;;;;;;;10586041;28;20044;-82
2022/10/14 09:53:23;;;;;;;4.40;2.08;;;;;;;;;;10587261;28;20075;-80
2022/10/14 09:58:30;;;;;;;2.40;1.55;;;;;;;;;;10575016;28;20040;-83
2022/10/14 10:03:34;;;;;;;2.58;1.48;;;;;;;;;;10552176;28;20084;-83
2022/10/14 10:08:38;;;;;;;5.00;1.63;;;;;;;;;;10549434;28;20063;-85
2022/10/14 10:13:44;;;;;;;2.42;1.50;;;;;;;;;;10544052;28;20027;-83
2022/10/14 10:18:45;;;;;;;3.38;1.50;;;;;;;;;;10545089;28;20054;-84
2022/10/14 10:23:57;;;;;;;2.80;1.95;;;;;;;;;;10543433;28;20616;-83
2022/10/14 10:29:01;;;;;;;2.60;1.25;;;;;;;;;;10542582;28;20110;-83
2022/10/14 10:34:12;;;;;;;3.55;1.50;;;;;;;;;;10542877;28;20024;-83
2022/10/14 10:39:13;;;;;;;;;;;;;;;;;;10545302;28;20171;-82
2022/10/14 10:44:14;;;;;;;;;;;;;;;;;;10550448;28;19914;-83
2022/10/14 10:49:37;;;;;;;2.00;1.25;;;;;;;;;;10554470;28;20372;-82
2022/10/14 10:54:52;;;;;;;1.38;1.10;;;;;;;;;;10560868;28;20111;-82
2022/10/14 10:59:59;;;;;;;2.30;1.30;;;;;;;;;;10571960;28;20042;-84
2022/10/14 11:05:06;;;;;;;3.22;1.40;;;;;;;;;;10590185;28;20490;-81
2022/10/14 11:15:53;;;;;;;4.00;1.20;;;;;;;;;;10559887;28;20036;-82
2022/10/14 11:21:08;;;;;;;1.38;1.10;;;;;;;;;;10550695;28;20040;-81
2022/10/14 11:26:28;;;;;;;3.15;1.65;;;;;;;;;;10565064;28;20032;-84
2022/10/14 11:31:29;;;;;;;1.88;1.15;;;;;;;;;;10553231;28;20020;-82
2022/10/14 11:36:33;;;;;;;5.10;1.60;;;;;;;;;;10549313;28;20042;-82
2022/10/14 11:41:52;;;;;;;3.75;1.50;;;;;;;;;;10550211;28;20177;-82
2022/10/14 11:46:55;;;;;;;3.15;1.30;;;;;;;;;;10549767;28;20550;-83
2022/10/14 11:52:11;;;;;;;4.40;1.60;;;;;;;;;;10550321;28;20081;-83
2022/10/14 11:57:28;;;;;;;2.40;1.23;;;;;;;;;;10557993;28;20046;-84
2022/10/14 12:02:48;;;;;;;3.95;1.67;;;;;;;;;;10565197;28;20032;-83
2022/10/14 12:07:56;;;;;;;3.80;1.50;;;;;;;;;;10555035;28;20099;-83
2022/10/14 12:12:57;;;;;;;3.03;1.65;;;;;;;;;;10552314;28;20096;-82
2022/10/14 12:18:05;;;;;;;3.20;1.50;;;;;;;;;;10556834;28;20174;-83
2022/10/14 12:23:07;;;;;;;5.65;1.60;;;;;;;;;;10552884;28;20505;-83
2022/10/14 12:28:09;;;;;;;2.92;1.80;;;;;;;;;;10553792;28;20099;-83
2022/10/14 12:33:12;;;;;;;3.22;1.90;;;;;;;;;;10557047;28;20146;-84
2022/10/14 12:38:13;;;;;;;4.45;2.70;;;;;;;;;;10557337;28;20028;-84
2022/10/14 12:43:20;;;;;;;2.53;1.95;;;;;;;;;;10567655;28;20032;-85
2022/10/14 12:48:34;;;;;;;3.55;1.90;;;;;;;;;;10555431;28;20031;-83
2022/10/14 13:05:52;;;;;;;7.07;3.30;;;;;;;;;;10445394;28;20049;-82
2022/10/14 13:17:14;;;;;;;5.82;2.85;;;;;;;;;;10395250;28;20034;-81
2022/10/14 13:22:37;;;;;;;5.78;3.28;;;;;;;;;;10385880;28;20053;-79
2022/10/14 13:28:06;;;;;;;5.20;4.05;;;;;;;;;;10611901;28;20031;-80
2022/10/14 13:33:56;;;;;;;6.30;3.42;;;;;;;;;;10320881;28;20062;-79
2022/10/14 13:39:06;;;;;;;4.25;3.45;;;;;;;;;;10487906;28;20053;-83
2022/10/14 13:44:15;;;;;;;4.88;3.28;;;;;;;;;;10621299;27;20058;-83
2022/10/14 13:49:45;;;;;;;5.82;2.92;;;;;;;;;;10591260;28;20031;-82
2022/10/14 14:11:53;;;;;;;4.28;3.00;;;;;;;;;;10577687;27;20028;-83
2022/10/14 14:22:22;;;;;;;5.82;4.03;;;;;;;;;;10612711;22;20063;-85
2022/10/14 14:27:25;;;;;;;5.68;3.95;;;;;;;;;;10527420;28;20113;-86
2022/10/14 14:32:32;;;;;;;4.15;3.40;;;;;;;;;;10493847;28;20093;-86
2022/10/14 14:37:39;;;;;;;5.60;3.55;;;;;;;;;;10478641;28;20090;-84
2022/10/14 14:42:43;;;;;;;5.43;3.30;;;;;;;;;;10483531;28;20025;-83
2022/10/14 14:47:51;;;;;;;4.85;3.42;;;;;;;;;;10471961;28;20033;-81
2022/10/14 14:52:53;;;;;;;4.90;3.50;;;;;;;;;;10475484;28;20100;-83
2022/10/14 14:58:06;;;;;;;5.75;3.33;;;;;;;;;;10465135;28;20096;-82
2022/10/14 15:31:34;;;;;;;4.43;3.63;;;;;;;;;;10487639;28;20045;-84
2022/10/14 15:36:41;;;;;;;6.60;4.00;;;;;;;;;;10456262;28;20109;-84
2022/10/14 15:41:42;;;;;;;5.05;3.40;;;;;;;;;;10476383;28;20037;-85
2022/10/14 15:47:19;;;;;;;4.40;3.50;;;;;;;;;;10463628;28;20036;-84
2022/10/14 15:52:24;;;;;;;5.63;3.13;;;;;;;;;;10480491;28;20036;-84
2022/10/14 16:03:21;;;;;;;4.95;3.03;;;;;;;;;;10490334;28;20012;-85
2022/10/14 16:08:25;;;;;;;3.75;3.20;;;;;;;;;;10480518;28;20043;-85
2022/10/14 16:13:31;;;;;;;4.85;3.15;;;;;;;;;;10451159;28;20031;-86
2022/10/14 16:18:33;;;;;;;5.05;3.40;;;;;;;;;;10449906;28;20035;-86
2022/10/14 16:23:53;;;;;;;4.35;3.15;;;;;;;;;;10419523;28;20099;-85
